createdAt,value
2018-01-12T00:15:21.925Z,79.6
2018-01-12T00:31:57.650Z,79.6
2018-01-12T00:48:33.011Z,78.8
2018-01-12T01:05:07.963Z,79.2
2018-01-12T01:21:43.426Z,79.2
2018-01-12T01:38:18.980Z,79.2
2018-01-12T02:11:29.890Z,78.8
2018-01-12T02:28:05.102Z,79.2
2018-01-12T02:44:40.168Z,79.2
2018-01-12T03:01:15.221Z,79.2
2018-01-12T03:17:50.403Z,79.2
2018-01-12T03:34:25.618Z,79.6
2018-01-12T03:51:00.935Z,79.6
2018-01-12T04:07:36.261Z,79.6
2018-01-12T04:24:11.392Z,79.2
2018-01-12T04:40:46.588Z,79.6
2018-01-12T04:57:21.908Z,79.6
2018-01-12T05:13:57.681Z,79.2
2018-01-12T05:30:32.425Z,79.2
2018-01-12T05:47:07.746Z,79.6
2018-01-12T06:03:43.068Z,79.6
2018-01-12T06:20:18.624Z,79.2
2018-01-12T06:36:54.057Z,79.6
2018-01-12T06:53:29.554Z,79.6
2018-01-12T07:26:40.376Z,79.6
2018-01-12T07:43:15.852Z,79.6
2018-01-12T07:59:51.325Z,79.6
2018-01-12T08:16:26.797Z,79.6
2018-01-12T08:33:02.237Z,79.6
2018-01-12T08:49:37.656Z,79.6
2018-01-12T09:06:13.125Z,79.6
2018-01-12T09:22:48.703Z,80.0
2018-01-12T09:39:24.380Z,80.0
2018-01-12T09:56:00.049Z,80.0
2018-01-12T10:12:35.536Z,80.0
2018-01-12T10:29:11.389Z,80.0
2018-01-12T10:45:46.793Z,80.4
2018-01-12T11:02:22.297Z,80.8
2018-01-12T11:18:58.095Z,80.4
2018-01-12T11:35:33.835Z,80.0
2018-01-12T11:52:09.810Z,80.0
2018-01-12T12:08:45.481Z,80.0
2018-01-12T12:25:21.261Z,80.4
2018-01-12T12:41:57.049Z,80.0
2018-01-12T12:58:32.856Z,80.4
2018-01-12T13:15:08.721Z,80.4
2018-01-12T13:31:44.719Z,80.8
2018-01-12T13:48:20.648Z,80.8
2018-01-12T14:04:56.121Z,80.8
2018-01-12T14:21:31.850Z,80.8
2018-01-12T14:38:07.596Z,81.2
2018-01-12T14:54:43.321Z,81.6
2018-01-12T15:11:19.215Z,80.8
2018-01-12T15:27:55.085Z,81.2
2018-01-12T15:44:30.788Z,81.6
2018-01-12T16:01:06.655Z,81.6
2018-01-12T16:17:42.496Z,81.6
2018-01-12T16:34:18.353Z,81.6
2018-01-12T16:50:54.711Z,81.6
2018-01-12T17:07:30.476Z,81.2
2018-01-12T17:24:06.453Z,81.2
2018-01-12T17:40:42.595Z,81.2
2018-01-12T17:57:19.111Z,80.8
2018-01-12T18:13:54.497Z,81.6
2018-01-12T18:30:30.513Z,81.2
2018-01-12T18:47:06.579Z,81.2
2018-01-12T19:03:42.828Z,81.2
2018-01-12T19:20:18.894Z,81.2
2018-01-12T19:36:55.076Z,81.2
2018-01-12T19:53:31.381Z,80.8
2018-01-12T20:10:07.323Z,81.2
2018-01-12T20:26:45.147Z,81.2
2018-01-12T20:43:20.937Z,80.8
2018-01-12T20:59:55.386Z,81.2
2018-01-12T21:16:31.259Z,81.6
2018-01-12T21:33:07.383Z,81.6
2018-01-12T21:49:43.068Z,81.6
2018-01-12T22:06:18.999Z,81.6
2018-01-12T22:22:54.864Z,81.6
2018-01-12T22:39:30.741Z,81.6
2018-01-12T22:56:06.653Z,81.6
2018-01-12T23:12:42.534Z,81.6
2018-01-12T23:29:18.210Z,82.0
2018-01-12T23:45:54.010Z,82.0
